Time;durP1;ratioP1;P1;durP2;ratioP2;P2;SDS_P1;SDS_P2;PMS_P1;PMS_P2;Temp;Humidity;BMP_temperature;BMP_pressure;BME280_temperature;BME280_humidity;BME280_pressure;Samples;Min_cycle;Max_cycle;Signal;HPM_P1;HPM_P2
2021/07/07 00:00:21;;;;;;;2.72;1.80;;;;;;;13.25;100.00;92989.59;2545197;23;20575;-83
2021/07/07 00:01:22;;;;;;;6.90;1.70;;;;;;;13.26;100.00;92988.44;2547170;23;20049;-83
2021/07/07 00:02:22;;;;;;;6.03;1.88;;;;;;;13.23;100.00;92991.97;2557516;23;20088;-82
2021/07/07 00:03:23;;;;;;;5.05;1.70;;;;;;;13.20;100.00;92993.56;2569755;23;20039;-83
2021/07/07 00:04:24;;;;;;;1.90;1.70;;;;;;;13.18;100.00;92989.81;2557411;23;20787;-82
2021/07/07 00:05:24;;;;;;;6.88;2.05;;;;;;;13.20;100.00;92988.19;2569704;23;20032;-82
2021/07/07 00:06:25;;;;;;;1.95;1.85;;;;;;;13.24;100.00;92990.78;2569763;23;20004;-83
2021/07/07 00:07:26;;;;;;;5.05;2.03;;;;;;;13.21;100.00;92986.25;2557425;23;20005;-82
2021/07/07 00:08:27;;;;;;;5.03;2.05;;;;;;;13.22;100.00;92998.50;2544989;23;20002;-82
2021/07/07 00:09:27;;;;;;;6.28;2.17;;;;;;;13.18;100.00;92997.88;2569892;23;20004;-82
2021/07/07 00:10:33;;;;;;;2.55;2.10;;;;;;;13.18;100.00;93000.56;2569877;23;20009;-83
2021/07/07 00:11:34;;;;;;;20.20;2.53;;;;;;;13.16;100.00;92995.59;2558196;23;20001;-82
2021/07/07 00:12:34;;;;;;;13.48;2.30;;;;;;;13.18;100.00;92993.25;2557599;23;20009;-83
2021/07/07 00:13:35;;;;;;;5.82;2.10;;;;;;;13.20;100.00;92995.50;2556938;23;20005;-82
2021/07/07 00:14:36;;;;;;;2.78;2.25;;;;;;;13.27;100.00;93006.03;2545260;23;20005;-82
2021/07/07 00:15:37;;;;;;;13.07;2.30;;;;;;;13.17;100.00;93001.72;2545009;23;20039;-82
2021/07/07 00:16:38;;;;;;;4.53;2.35;;;;;;;13.16;100.00;93009.03;2557347;23;20393;-82
2021/07/07 00:17:39;;;;;;;7.35;2.40;;;;;;;13.22;100.00;93007.34;2569701;23;20001;-82
2021/07/07 00:18:40;;;;;;;5.85;2.10;;;;;;;13.24;100.00;93009.59;2570119;23;20443;-83
2021/07/07 00:19:40;;;;;;;18.27;2.20;;;;;;;13.18;100.00;93011.28;2569598;23;20001;-81
2021/07/07 00:20:45;;;;;;;6.03;2.30;;;;;;;13.22;100.00;93007.34;2569760;23;20351;-83
2021/07/07 00:21:46;;;;;;;41.85;2.47;;;;;;;13.16;100.00;93011.72;2570458;23;20005;-83
2021/07/07 00:22:48;;;;;;;15.43;2.30;;;;;;;13.14;100.00;92999.94;2569841;23;20000;-83
2021/07/07 00:23:48;;;;;;;60.22;2.63;;;;;;;13.14;100.00;92999.94;2557385;23;20055;-82
2021/07/07 00:24:49;;;;;;;32.55;2.50;;;;;;;13.14;100.00;92998.00;2569818;23;20000;-82
2021/07/07 00:25:50;;;;;;;27.35;2.45;;;;;;;13.15;100.00;92996.06;2582073;23;20102;-83
2021/07/07 00:26:51;;;;;;;39.58;2.33;;;;;;;13.16;100.00;92994.88;2569730;23;20028;-83
2021/07/07 00:27:51;;;;;;;36.15;2.47;;;;;;;13.07;100.00;92988.22;2557304;23;20047;-82
2021/07/07 00:28:52;;;;;;;7.90;2.00;;;;;;;13.09;100.00;92985.88;2557285;23;20001;-82
2021/07/07 00:29:55;;;;;;;34.72;3.22;;;;;;;13.12;100.00;92978.88;2569622;23;20001;-83
2021/07/07 00:30:55;;;;;;;46.20;2.53;;;;;;;13.12;100.00;92984.25;2582270;23;20004;-82
2021/07/07 00:31:56;;;;;;;49.15;2.58;;;;;;;13.10;100.00;92971.28;2557471;23;20393;-82
2021/07/07 00:32:58;;;;;;;24.40;2.42;;;;;;;13.12;100.00;92965.47;2557018;23;20032;-83
2021/07/07 00:33:58;;;;;;;20.48;2.20;;;;;;;13.16;100.00;92966.09;2557419;23;20372;-82
2021/07/07 00:34:59;;;;;;;11.75;2.72;;;;;;;13.14;100.00;92965.03;2569547;23;20002;-82
2021/07/07 00:36:00;;;;;;;17.30;2.58;;;;;;;13.13;100.00;92956.25;2582045;23;20332;-82
2021/07/07 00:37:02;;;;;;;5.60;2.50;;;;;;;13.13;100.00;92960.88;2569385;23;20092;-82
2021/07/07 00:38:02;;;;;;;9.38;2.42;;;;;;;13.14;100.00;92963.09;2545072;23;20005;-82
2021/07/07 00:39:04;;;;;;;10.48;2.80;;;;;;;13.19;100.00;92962.53;2544900;23;20005;-82
2021/07/07 00:40:05;;;;;;;2.33;2.13;;;;;;;13.18;100.00;92960.31;2545175;23;20455;-81
2021/07/07 00:41:07;;;;;;;6.22;2.72;;;;;;;13.16;100.00;92973.41;2545233;23;20005;-82
2021/07/07 00:42:08;;;;;;;4.20;2.38;;;;;;;13.17;100.00;92977.56;2557426;23;20008;-83
2021/07/07 00:43:09;;;;;;;4.65;2.60;;;;;;;13.17;100.00;92989.09;2557331;23;20005;-82
2021/07/07 00:44:10;;;;;;;5.50;2.45;;;;;;;13.21;100.00;92988.94;2557159;23;20036;-82
2021/07/07 00:45:12;;;;;;;2.80;2.53;;;;;;;13.27;100.00;92990.69;2544768;23;20006;-83
2021/07/07 00:46:13;;;;;;;5.55;2.75;;;;;;;13.22;100.00;92999.28;2545034;23;20016;-82
2021/07/07 00:47:13;;;;;;;2.53;2.33;;;;;;;13.26;100.00;93004.53;2556812;23;20025;-82
2021/07/07 00:48:14;;;;;;;2.47;2.17;;;;;;;13.25;100.00;92998.41;2569575;23;20005;-82
2021/07/07 00:49:16;;;;;;;4.15;2.40;;;;;;;13.25;100.00;92997.66;2557032;23;20008;-82
2021/07/07 00:50:17;;;;;;;5.20;2.45;;;;;;;13.23;100.00;93005.41;2545434;23;20033;-83
2021/07/07 00:51:18;;;;;;;6.68;2.40;;;;;;;13.16;100.00;93000.22;2557228;23;20640;-82
2021/07/07 00:52:19;;;;;;;21.35;2.47;;;;;;;13.09;100.00;93001.22;2557253;23;20005;-82
2021/07/07 00:53:20;;;;;;;10.93;2.20;;;;;;;13.05;100.00;93009.41;2569486;23;20123;-82
2021/07/07 00:54:23;;;;;;;5.43;2.30;;;;;;;13.13;100.00;93001.13;2544770;23;20010;-83
2021/07/07 00:55:24;;;;;;;5.95;2.28;;;;;;;13.17;100.00;93001.72;2557753;23;20001;-82
2021/07/07 00:56:29;;;;;;;2.65;2.45;;;;;;;13.09;100.00;93007.34;2569514;23;20005;-84
2021/07/07 00:57:34;;;;;;;4.18;2.53;;;;;;;13.09;100.00;92998.56;2558548;23;20092;-82
2021/07/07 00:58:36;;;;;;;17.88;2.95;;;;;;;13.10;100.00;93000.78;2557670;23;20048;-83
2021/07/07 00:59:37;;;;;;;7.63;2.30;;;;;;;13.14;100.00;93003.34;2545478;23;20450;-83
2021/07/07 01:00:38;;;;;;;30.38;2.95;;;;;;;13.14;100.00;93000.69;2557303;23;20116;-82
2021/07/07 01:01:40;;;;;;;14.30;2.80;;;;;;;13.13;100.00;93009.16;2569245;23;20008;-83
2021/07/07 01:02:43;;;;;;;19.08;3.05;;;;;;;13.01;100.00;93003.41;2557355;23;19997;-82
2021/07/07 01:03:44;;;;;;;14.23;2.80;;;;;;;13.01;100.00;92999.97;2557673;23;20001;-83
2021/07/07 01:04:44;;;;;;;19.55;2.67;;;;;;;13.06;100.00;92994.03;2557114;23;20005;-83
2021/07/07 01:05:45;;;;;;;3.65;2.53;;;;;;;13.04;100.00;92991.06;2544754;23;20012;-83
2021/07/07 01:06:46;;;;;;;24.67;3.03;;;;;;;13.02;100.00;92991.47;2556956;23;20009;-82
2021/07/07 01:07:47;;;;;;;11.68;3.15;;;;;;;13.03;100.00;92992.97;2557146;23;20005;-83
2021/07/07 01:08:48;;;;;;;10.38;2.60;;;;;;;13.03;100.00;92987.59;2544982;23;20002;-82
2021/07/07 01:09:49;;;;;;;15.60;2.95;;;;;;;13.05;100.00;92989.88;2557137;23;20005;-82
2021/07/07 01:10:50;;;;;;;6.95;2.97;;;;;;;13.01;100.00;92978.50;2582187;23;20028;-82
2021/07/07 01:11:50;;;;;;;13.32;3.00;;;;;;;13.00;100.00;92971.63;2582967;22;20004;-82
2021/07/07 01:12:53;;;;;;;17.60;3.08;;;;;;;12.98;100.00;92982.78;2569437;23;20009;-83
2021/07/07 01:13:54;;;;;;;6.35;3.20;;;;;;;12.99;100.00;92972.81;2545100;23;20009;-83
2021/07/07 01:14:55;;;;;;;7.88;2.47;;;;;;;13.01;100.00;92975.81;2557157;23;20336;-83
2021/07/07 01:15:56;;;;;;;21.40;3.35;;;;;;;13.01;100.00;92983.88;2569492;23;20005;-82
2021/07/07 01:16:57;;;;;;;23.63;3.25;;;;;;;13.04;100.00;92974.97;2557258;23;20001;-83
2021/07/07 01:17:58;;;;;;;24.80;3.25;;;;;;;13.05;100.00;92984.50;2544727;23;20336;-82
2021/07/07 01:18:59;;;;;;;27.92;3.20;;;;;;;13.07;100.00;92992.84;2556992;23;20005;-83
2021/07/07 01:20:26;;;;;;;22.75;3.22;;;;;;;13.05;100.00;92987.19;2557260;23;20016;-82
2021/07/07 01:21:27;;;;;;;5.43;2.63;;;;;;;13.07;100.00;92993.59;2560832;23;20422;-83
2021/07/07 01:22:28;;;;;;;11.63;2.75;;;;;;;13.06;100.00;92999.41;2557082;23;20001;-82
2021/07/07 01:23:29;;;;;;;12.77;2.90;;;;;;;13.03;100.00;92994.91;2556994;23;20027;-82
2021/07/07 01:24:30;;;;;;;8.95;2.97;;;;;;;13.06;100.00;93010.88;2556943;23;20483;-82
2021/07/07 01:25:31;;;;;;;10.45;3.22;;;;;;;13.07;100.00;93004.34;2556741;23;20005;-83
2021/07/07 01:26:31;;;;;;;10.05;3.20;;;;;;;13.04;100.00;93010.59;2556939;23;20035;-82
2021/07/07 01:27:32;;;;;;;14.00;3.33;;;;;;;13.12;100.00;93021.81;2557046;23;20000;-83
2021/07/07 01:28:33;;;;;;;12.95;3.17;;;;;;;13.18;100.00;93011.28;2556976;23;20005;-83
2021/07/07 01:29:34;;;;;;;6.00;3.10;;;;;;;13.21;100.00;93013.09;2556976;23;20009;-82
2021/07/07 01:30:35;;;;;;;14.13;3.33;;;;;;;13.19;100.00;93007.41;2569425;23;20095;-82
2021/07/07 01:31:37;;;;;;;4.57;3.20;;;;;;;13.14;100.00;93008.72;2569553;23;20082;-83
2021/07/07 01:32:38;;;;;;;4.95;3.00;;;;;;;13.11;100.00;92998.84;2569540;23;20004;-83
2021/07/07 01:33:38;;;;;;;4.82;3.38;;;;;;;13.10;100.00;93008.84;2556694;23;20459;-84
2021/07/07 01:34:39;;;;;;;5.55;3.10;;;;;;;13.05;100.00;92995.97;2557182;23;20036;-84
2021/07/07 01:35:40;;;;;;;7.68;3.13;;;;;;;13.07;100.00;93000.91;2569360;23;20009;-83
2021/07/07 01:36:41;;;;;;;3.53;3.22;;;;;;;13.05;100.00;92992.56;2557231;23;20017;-84
2021/07/07 01:37:42;;;;;;;3.83;3.00;;;;;;;13.07;100.00;92984.81;2556519;23;20016;-83
2021/07/07 01:38:43;;;;;;;6.75;3.40;;;;;;;13.09;100.00;92985.13;2557244;23;20001;-84
2021/07/07 01:39:44;;;;;;;4.47;2.92;;;;;;;13.13;100.00;92972.34;2557176;23;20324;-84
2021/07/07 01:40:45;;;;;;;3.33;3.03;;;;;;;13.16;100.00;92970.72;2557114;23;20005;-83
2021/07/07 01:41:46;;;;;;;3.55;3.25;;;;;;;13.15;100.00;92975.34;2557159;23;20364;-83
2021/07/07 01:42:47;;;;;;;3.50;3.25;;;;;;;13.16;100.00;92976.81;2557083;23;20016;-83
2021/07/07 01:43:48;;;;;;;8.07;3.17;;;;;;;13.14;100.00;92981.88;2544764;23;20408;-84
2021/07/07 01:44:49;;;;;;;3.97;3.45;;;;;;;13.11;100.00;92980.06;2544965;23;20029;-84
2021/07/07 01:45:49;;;;;;;9.38;3.42;;;;;;;13.09;100.00;92977.84;2557149;23;20109;-83
2021/07/07 01:46:50;;;;;;;4.28;3.65;;;;;;;13.10;100.00;92976.63;2556843;23;20099;-83
2021/07/07 01:47:52;;;;;;;3.67;3.30;;;;;;;13.15;100.00;92971.91;2569503;23;20000;-84
2021/07/07 01:48:53;;;;;;;4.13;3.08;;;;;;;13.13;100.00;92968.91;2582131;23;20355;-82
2021/07/07 01:49:54;;;;;;;3.45;3.00;;;;;;;13.19;100.00;92975.97;2569212;23;20009;-82
2021/07/07 01:50:54;;;;;;;4.10;2.90;;;;;;;13.21;100.00;92970.16;2544587;23;20001;-83
2021/07/07 01:51:55;;;;;;;2.72;2.53;;;;;;;13.17;100.00;92966.84;2557008;23;20087;-83
2021/07/07 01:52:56;;;;;;;3.72;2.92;;;;;;;13.18;100.00;92961.06;2544731;23;20002;-84
2021/07/07 01:53:57;;;;;;;2.80;2.60;;;;;;;13.15;100.00;92961.91;2544579;23;20005;-83
2021/07/07 01:55:00;;;;;;;5.28;2.85;;;;;;;13.15;100.00;92955.81;2544906;23;20001;-83
2021/07/07 01:56:01;;;;;;;4.18;2.55;;;;;;;13.17;100.00;92953.41;2569460;23;20012;-84
2021/07/07 01:57:02;;;;;;;4.13;2.63;;;;;;;13.16;100.00;92951.94;2544682;23;20427;-83
2021/07/07 01:58:03;;;;;;;5.47;2.88;;;;;;;13.18;100.00;92944.19;2556960;23;20008;-83
2021/07/07 01:59:03;;;;;;;3.20;2.90;;;;;;;13.16;100.00;92936.56;2569341;23;20087;-83
2021/07/07 02:00:05;;;;;;;3.10;2.90;;;;;;;13.14;100.00;92922.09;2581884;23;20735;-83
2021/07/07 02:01:07;;;;;;;3.17;2.88;;;;;;;13.14;100.00;92916.75;2581938;23;20457;-83
2021/07/07 02:02:08;;;;;;;5.20;2.83;;;;;;;13.17;100.00;92913.94;2556744;23;20459;-83
2021/07/07 02:03:09;;;;;;;5.50;3.03;;;;;;;13.21;100.00;92932.56;2569362;23;20004;-84
2021/07/07 02:04:10;;;;;;;4.10;2.90;;;;;;;13.29;100.00;92944.59;2556866;23;20645;-83
2021/07/07 02:05:11;;;;;;;2.92;2.70;;;;;;;13.26;100.00;92958.91;2569479;23;20000;-83
2021/07/07 02:06:12;;;;;;;3.05;2.70;;;;;;;13.31;100.00;92969.09;2581745;23;20005;-83
2021/07/07 02:07:13;;;;;;;3.42;2.75;;;;;;;13.27;100.00;92981.88;2556894;23;20432;-83
2021/07/07 02:08:14;;;;;;;4.05;2.70;;;;;;;13.27;100.00;92988.00;2556889;23;20029;-82
2021/07/07 02:09:15;;;;;;;2.60;2.40;;;;;;;13.24;100.00;92986.16;2569217;23;20004;-83
2021/07/07 02:10:17;;;;;;;3.15;2.95;;;;;;;13.28;100.00;93002.16;2557095;23;20487;-83
2021/07/07 02:11:18;;;;;;;2.75;2.55;;;;;;;13.24;100.00;92999.59;2545088;23;20013;-83
2021/07/07 02:12:18;;;;;;;4.00;2.80;;;;;;;13.21;100.00;92995.06;2544492;23;20010;-83
2021/07/07 02:13:19;;;;;;;3.05;2.83;;;;;;;13.21;100.00;92997.75;2544469;23;20048;-83
2021/07/07 02:14:20;;;;;;;2.95;2.70;;;;;;;13.22;100.00;92998.50;2544320;23;20733;-83
2021/07/07 02:15:25;;;;;;;2.72;2.53;;;;;;;13.21;100.00;92994.31;2556866;23;20005;-83
2021/07/07 02:16:26;;;;;;;2.90;2.60;;;;;;;13.21;100.00;92986.25;2557632;23;20079;-81
2021/07/07 02:17:26;;;;;;;3.42;2.72;;;;;;;13.23;100.00;92991.97;2569248;23;20028;-83
2021/07/07 02:18:27;;;;;;;3.20;2.78;;;;;;;13.21;100.00;92997.75;2556744;23;20012;-83
2021/07/07 02:19:28;;;;;;;3.50;2.58;;;;;;;13.21;100.00;92997.75;2569343;23;20050;-83
2021/07/07 02:20:31;;;;;;;2.85;2.65;;;;;;;13.19;100.00;92991.31;2556870;23;20005;-84
2021/07/07 02:21:32;;;;;;;2.53;2.20;;;;;;;13.20;100.00;93000.88;2569388;23;20008;-83
2021/07/07 02:22:32;;;;;;;2.55;2.22;;;;;;;13.22;100.00;93001.97;2569348;23;20391;-83
2021/07/07 02:23:33;;;;;;;2.80;2.60;;;;;;;13.17;100.00;93002.50;2569348;23;20005;-84
2021/07/07 02:24:34;;;;;;;3.72;3.40;;;;;;;13.20;100.00;92998.19;2569399;23;20000;-84
2021/07/07 02:25:36;;;;;;;3.72;2.67;;;;;;;13.20;100.00;92992.81;2556746;23;20009;-85
2021/07/07 02:26:37;;;;;;;5.57;2.78;;;;;;;13.19;100.00;92986.69;2545045;23;20060;-86
2021/07/07 02:27:38;;;;;;;5.88;2.95;;;;;;;13.18;100.00;92984.47;2557018;23;20025;-84
2021/07/07 02:28:39;;;;;;;3.58;2.67;;;;;;;13.18;100.00;92971.78;2569463;23;20005;-84
2021/07/07 02:29:40;;;;;;;3.33;3.05;;;;;;;13.19;100.00;92965.22;2556789;23;20009;-84
2021/07/07 02:30:42;;;;;;;3.70;2.80;;;;;;;13.18;100.00;92958.38;2556829;23;20001;-84
2021/07/07 02:31:43;;;;;;;3.58;2.63;;;;;;;13.19;100.00;92949.13;2557401;23;20005;-84
2021/07/07 02:32:44;;;;;;;3.10;2.80;;;;;;;13.17;100.00;92953.41;2556919;23;20005;-84
2021/07/07 02:33:45;;;;;;;3.88;2.78;;;;;;;13.16;100.00;92936.56;2544720;23;20047;-85
2021/07/07 02:34:46;;;;;;;2.88;2.67;;;;;;;13.15;100.00;92937.00;2569525;23;20011;-84
2021/07/07 02:35:46;;;;;;;2.90;2.70;;;;;;;13.18;100.00;92928.09;2569307;23;20000;-84
2021/07/07 02:36:47;;;;;;;3.63;2.88;;;;;;;13.15;100.00;92926.28;2544655;23;20008;-83
2021/07/07 02:37:53;;;;;;;3.67;2.58;;;;;;;13.16;100.00;92941.19;2544471;23;20002;-83
2021/07/07 02:38:53;;;;;;;2.60;2.40;;;;;;;13.20;100.00;92952.56;2557829;23;20055;-82
2021/07/07 02:39:54;;;;;;;2.95;2.75;;;;;;;13.21;100.00;92946.00;2556941;23;20421;-83
2021/07/07 02:40:55;;;;;;;2.78;2.47;;;;;;;13.21;100.00;92968.22;2556767;23;20001;-85
2021/07/07 02:41:56;;;;;;;2.80;2.60;;;;;;;13.26;100.00;92966.97;2556841;23;20005;-84
2021/07/07 02:42:57;;;;;;;4.03;2.60;;;;;;;13.27;100.00;92979.19;2569410;23;20032;-84
2021/07/07 02:43:58;;;;;;;2.80;2.60;;;;;;;13.28;100.00;92976.06;2569371;23;20010;-83
2021/07/07 02:44:59;;;;;;;3.25;2.42;;;;;;;13.35;100.00;92983.13;2544644;23;20639;-85
2021/07/07 02:46:00;;;;;;;2.33;2.13;;;;;;;13.39;100.00;92975.72;2544628;23;20005;-84
2021/07/07 02:47:01;;;;;;;2.58;2.38;;;;;;;13.34;100.00;92984.28;2544412;23;20006;-83
2021/07/07 02:48:04;;;;;;;3.22;3.00;;;;;;;13.38;100.00;92982.25;2544665;23;20005;-83
2021/07/07 02:49:04;;;;;;;2.70;2.50;;;;;;;13.35;100.00;92983.88;2545337;23;20362;-84
2021/07/07 02:50:07;;;;;;;2.65;2.35;;;;;;;13.32;100.00;92995.47;2544368;23;20037;-85
2021/07/07 02:51:08;;;;;;;2.75;2.42;;;;;;;13.33;100.00;92991.59;2545475;23;20016;-84
2021/07/07 02:52:09;;;;;;;5.28;2.75;;;;;;;13.29;100.00;92987.53;2556932;23;20047;-84
2021/07/07 02:53:12;;;;;;;5.75;2.88;;;;;;;13.26;100.00;92988.44;2556785;23;20001;-84
2021/07/07 02:54:12;;;;;;;2.50;2.30;;;;;;;13.26;100.00;92985.75;2557761;23;20005;-84
2021/07/07 02:55:15;;;;;;;3.67;2.38;;;;;;;13.28;100.00;92994.09;2556980;23;20013;-83
2021/07/07 02:56:16;;;;;;;2.78;2.58;;;;;;;13.28;100.00;92991.41;2545320;23;20380;-83
2021/07/07 02:57:17;;;;;;;4.35;2.60;;;;;;;13.26;100.00;92996.50;2544649;23;20001;-84
2021/07/07 02:58:18;;;;;;;4.25;2.80;;;;;;;13.22;100.00;92985.09;2556889;23;20036;-83
2021/07/07 02:59:19;;;;;;;3.42;2.40;;;;;;;13.25;100.00;92982.28;2569339;23;20004;-84
2021/07/07 03:00:21;;;;;;;2.78;2.58;;;;;;;13.28;100.00;92983.38;2556758;23;20098;-85
2021/07/07 03:01:21;;;;;;;2.17;1.98;;;;;;;13.24;100.00;92991.53;2545193;23;20052;-83
2021/07/07 03:02:22;;;;;;;2.75;2.55;;;;;;;13.27;100.00;92992.63;2556542;23;20005;-85
2021/07/07 03:03:25;;;;;;;2.78;2.58;;;;;;;13.28;100.00;92988.75;2556781;23;20431;-84
2021/07/07 03:04:25;;;;;;;2.75;2.55;;;;;;;13.29;100.00;92990.97;2569765;23;20032;-83
2021/07/07 03:05:27;;;;;;;3.95;2.33;;;;;;;13.22;100.00;92988.56;2569243;23;20009;-84
2021/07/07 03:06:28;;;;;;;4.47;2.30;;;;;;;13.25;100.00;92986.91;2580418;23;20111;-84
2021/07/07 03:07:29;;;;;;;2.38;2.17;;;;;;;13.26;100.00;92991.88;2567628;23;20517;-84
2021/07/07 03:08:32;;;;;;;2.35;2.17;;;;;;;13.26;100.00;92989.19;2542754;23;20005;-83
2021/07/07 03:09:33;;;;;;;2.95;2.30;;;;;;;13.17;100.00;92989.09;2544470;23;20005;-84
2021/07/07 03:10:34;;;;;;;3.22;2.22;;;;;;;13.21;100.00;92986.25;2544387;23;20012;-84
2021/07/07 03:11:35;;;;;;;3.22;2.42;;;;;;;13.20;100.00;92988.19;2545123;23;20025;-83
2021/07/07 03:12:36;;;;;;;3.45;2.05;;;;;;;13.19;100.00;92980.59;2544959;23;20462;-85
2021/07/07 03:13:37;;;;;;;2.38;2.17;;;;;;;13.21;100.00;92986.25;2544933;23;20012;-84
2021/07/07 03:14:37;;;;;;;2.40;2.30;;;;;;;13.21;100.00;92978.94;2556832;23;20602;-84
2021/07/07 03:15:39;;;;;;;2.60;2.28;;;;;;;13.21;100.00;92970.16;2544896;23;20006;-84
2021/07/07 03:16:40;;;;;;;3.83;2.22;;;;;;;13.19;100.00;92961.81;2545450;23;20002;-85
2021/07/07 03:17:41;;;;;;;2.38;2.20;;;;;;;13.18;100.00;92963.00;2545326;23;20005;-84
2021/07/07 03:18:42;;;;;;;2.72;2.20;;;;;;;13.17;100.00;92956.88;2545185;23;20044;-84
2021/07/07 03:19:42;;;;;;;2.20;2.00;;;;;;;13.18;100.00;92954.94;2570313;23;20058;-84
2021/07/07 03:20:45;;;;;;;2.17;2.05;;;;;;;13.13;100.00;92953.56;2570171;23;20458;-85
2021/07/07 03:21:46;;;;;;;2.13;1.90;;;;;;;13.13;100.00;92953.56;2546072;23;19998;-85
2021/07/07 03:22:46;;;;;;;2.22;2.10;;;;;;;13.17;100.00;92964.16;2570027;23;20035;-83
2021/07/07 03:23:48;;;;;;;2.28;2.08;;;;;;;13.19;100.00;92961.81;2569823;23;20000;-84
2021/07/07 03:24:48;;;;;;;2.05;1.95;;;;;;;13.17;100.00;92959.56;2557756;23;20009;-85
2021/07/07 03:25:51;;;;;;;1.85;1.75;;;;;;;13.16;100.00;92955.34;2557385;23;20057;-83
2021/07/07 03:26:52;;;;;;;2.00;1.80;;;;;;;13.11;100.00;92961.28;2557605;23;20802;-84
2021/07/07 03:27:52;;;;;;;4.55;1.80;;;;;;;13.15;100.00;92972.66;2557623;23;20008;-84
2021/07/07 03:28:53;;;;;;;1.73;1.63;;;;;;;13.15;100.00;92983.38;2569880;23;20009;-84
2021/07/07 03:29:54;;;;;;;2.70;1.75;;;;;;;13.22;100.00;92985.88;2570036;23;20027;-84
2021/07/07 03:30:54;;;;;;;1.70;1.60;;;;;;;13.23;100.00;92981.25;2557413;23;20016;-84
2021/07/07 03:31:55;;;;;;;2.35;1.55;;;;;;;13.23;100.00;92979.31;2557431;23;20013;-84
2021/07/07 03:32:57;;;;;;;2.03;1.85;;;;;;;13.28;100.00;92980.69;2557800;23;20008;-82
2021/07/07 03:33:58;;;;;;;2.10;2.00;;;;;;;13.25;100.00;92984.22;2557783;23;20020;-84
2021/07/07 03:34:59;;;;;;;2.30;1.80;;;;;;;13.29;100.00;92982.91;2545197;23;20508;-84
2021/07/07 03:36:00;;;;;;;3.15;2.10;;;;;;;13.31;100.00;92985.19;2557375;23;20008;-84
2021/07/07 03:37:00;;;;;;;2.10;1.90;;;;;;;13.31;100.00;92988.63;2569903;23;19996;-84
2021/07/07 03:38:02;;;;;;;1.88;1.77;;;;;;;13.28;100.00;92997.53;2569631;23;20012;-84
2021/07/07 03:39:03;;;;;;;2.35;2.15;;;;;;;13.33;100.00;93009.66;2557309;23;20420;-84
2021/07/07 03:40:04;;;;;;;1.85;1.63;;;;;;;13.36;100.00;93003.41;2545154;23;20029;-83
2021/07/07 03:41:05;;;;;;;2.03;1.60;;;;;;;13.29;100.00;93012.44;2557586;23;20063;-83
2021/07/07 03:42:06;;;;;;;2.00;1.85;;;;;;;13.30;100.00;93011.28;2557535;23;20059;-83
2021/07/07 03:43:07;;;;;;;1.95;1.60;;;;;;;13.24;100.00;93015.69;2545202;23;20425;-85
2021/07/07 03:44:08;;;;;;;3.70;1.73;;;;;;;13.25;100.00;93017.19;2557678;23;20004;-84
2021/07/07 03:45:11;;;;;;;1.90;1.80;;;;;;;13.31;100.00;93015.47;2557442;23;20005;-84
2021/07/07 03:46:12;;;;;;;1.67;1.58;;;;;;;13.31;100.00;93022.78;2558015;23;20593;-83
2021/07/07 03:47:12;;;;;;;1.70;1.60;;;;;;;13.38;100.00;93009.09;2544977;23;20013;-83
2021/07/07 03:48:13;;;;;;;2.55;1.65;;;;;;;13.38;100.00;93017.16;2544944;23;20010;-85
2021/07/07 03:49:14;;;;;;;1.70;1.60;;;;;;;13.32;100.00;93025.00;2545093;23;20012;-85
2021/07/07 03:50:16;;;;;;;1.85;1.70;;;;;;;13.33;100.00;93026.50;2569565;23;20042;-84
2021/07/07 03:51:17;;;;;;;2.25;1.67;;;;;;;13.32;100.00;93026.94;2569743;23;20008;-83
2021/07/07 03:52:18;;;;;;;2.38;1.60;;;;;;;13.26;100.00;93032.13;2557493;23;20005;-83
2021/07/07 03:53:18;;;;;;;1.80;1.70;;;;;;;13.26;100.00;93026.00;2569788;23;20000;-84
2021/07/07 03:54:23;;;;;;;3.30;1.80;;;;;;;13.25;100.00;93025.25;2532873;23;20030;-83
2021/07/07 03:55:24;;;;;;;6.40;1.88;;;;;;;13.25;100.00;93021.81;2545829;23;20444;-83
2021/07/07 03:56:25;;;;;;;2.65;2.03;;;;;;;13.25;100.00;93024.50;2532950;23;20422;-84
2021/07/07 03:57:25;;;;;;;2.60;1.92;;;;;;;13.25;100.00;93024.50;2545235;23;20001;-83
2021/07/07 03:58:26;;;;;;;1.67;1.58;;;;;;;13.24;100.00;93029.13;2557344;23;20095;-83
2021/07/07 03:59:27;;;;;;;2.03;1.83;;;;;;;13.27;100.00;93027.50;2557360;23;20001;-84
2021/07/07 04:00:28;;;;;;;2.05;1.95;;;;;;;13.25;100.00;93024.50;2532781;23;20013;-84
2021/07/07 04:01:29;;;;;;;2.22;2.13;;;;;;;13.20;100.00;93025.78;2545405;23;20002;-83
2021/07/07 04:02:29;;;;;;;7.80;2.08;;;;;;;13.20;100.00;93023.09;2544662;23;20005;-85
2021/07/07 04:03:30;;;;;;;2.00;1.80;;;;;;;13.20;100.00;93020.41;2545048;23;20439;-85
2021/07/07 04:04:31;;;;;;;5.07;1.83;;;;;;;13.19;100.00;93018.91;2557344;23;20012;-84
2021/07/07 04:05:31;;;;;;;2.63;1.90;;;;;;;13.21;100.00;93026.50;2557332;23;20009;-84
2021/07/07 04:06:32;;;;;;;3.55;2.00;;;;;;;13.22;100.00;93023.44;2569562;23;20015;-85
2021/07/07 04:07:33;;;;;;;2.22;1.80;;;;;;;13.21;100.00;93029.19;2545135;23;20013;-84
2021/07/07 04:08:34;;;;;;;1.65;1.55;;;;;;;13.18;100.00;93025.47;2532911;23;20369;-86
2021/07/07 04:09:35;;;;;;;3.50;1.77;;;;;;;13.19;100.00;93036.94;2545201;23;20057;-85
2021/07/07 04:10:35;;;;;;;1.70;1.60;;;;;;;13.17;100.00;93029.34;2545121;23;20080;-86
2021/07/07 04:11:36;;;;;;;2.22;1.52;;;;;;;13.18;100.00;93025.47;2557112;23;20393;-85
2021/07/07 04:12:38;;;;;;;1.70;1.60;;;;;;;13.18;100.00;93040.81;2544823;23;20112;-84
2021/07/07 04:13:39;;;;;;;2.08;1.50;;;;;;;13.18;100.00;93032.78;2557443;23;20005;-85
2021/07/07 04:14:40;;;;;;;2.85;1.15;;;;;;;13.15;100.00;93037.06;2544708;23;20361;-84
2021/07/07 04:15:40;;;;;;;1.42;1.33;;;;;;;13.21;100.00;93038.00;2532956;23;20006;-86
2021/07/07 04:16:41;;;;;;;5.70;1.70;;;;;;;13.17;100.00;93044.66;2545048;23;20412;-84
2021/07/07 04:17:43;;;;;;;3.70;1.35;;;;;;;13.14;100.00;93040.19;2532866;23;20108;-84
2021/07/07 04:18:43;;;;;;;1.85;1.40;;;;;;;13.14;100.00;93040.19;2532890;23;20010;-85
2021/07/07 04:19:44;;;;;;;1.52;1.40;;;;;;;13.12;100.00;93043.28;2557492;23;20005;-86
2021/07/07 04:20:45;;;;;;;1.08;0.98;;;;;;;13.14;100.00;93046.31;2557057;23;20005;-83
2021/07/07 04:21:46;;;;;;;2.25;1.15;;;;;;;13.10;100.00;93045.66;2532798;23;20330;-84
2021/07/07 04:22:49;;;;;;;1.15;1.05;;;;;;;13.12;100.00;93043.28;2545105;23;20012;-83
2021/07/07 04:23:49;;;;;;;3.33;1.30;;;;;;;13.11;100.00;93042.53;2570017;23;20001;-83
2021/07/07 04:24:50;;;;;;;1.30;1.20;;;;;;;13.13;100.00;93039.44;2557197;23;20005;-85
2021/07/07 04:25:51;;;;;;;2.38;1.08;;;;;;;13.13;100.00;93041.38;2557182;23;20016;-83
2021/07/07 04:26:51;;;;;;;4.78;1.05;;;;;;;13.11;100.00;93034.50;2556624;23;20009;-84
2021/07/07 04:27:53;;;;;;;6.90;1.00;;;;;;;13.11;100.00;93045.22;2556673;23;20437;-85
2021/07/07 04:28:54;;;;;;;1.35;1.13;;;;;;;13.06;100.00;93043.09;2557058;23;20009;-84
2021/07/07 04:29:55;;;;;;;1.08;0.90;;;;;;;13.06;100.00;93040.41;2557191;23;20015;-84
2021/07/07 04:30:55;;;;;;;2.03;1.10;;;;;;;13.09;100.00;93038.81;2556907;23;20001;-84
2021/07/07 04:31:57;;;;;;;1.33;1.17;;;;;;;13.09;100.00;93038.81;2544977;23;20010;-83
2021/07/07 04:32:58;;;;;;;1.88;1.33;;;;;;;13.07;100.00;93039.22;2544800;23;20079;-85
2021/07/07 04:33:59;;;;;;;5.13;1.20;;;;;;;13.10;100.00;93034.94;2544861;23;20364;-84
2021/07/07 04:35:00;;;;;;;1.98;1.42;;;;;;;13.09;100.00;93036.88;2545055;23;20436;-83
2021/07/07 04:36:00;;;;;;;6.57;1.40;;;;;;;13.10;100.00;93032.25;2556994;23;20005;-85
2021/07/07 04:37:01;;;;;;;1.25;1.17;;;;;;;13.05;100.00;93036.22;2569575;23;20168;-84
2021/07/07 04:38:02;;;;;;;1.77;1.20;;;;;;;13.05;100.00;93033.53;2557248;23;20012;-84
2021/07/07 04:39:05;;;;;;;1.92;1.35;;;;;;;13.07;100.00;93041.91;2556909;23;19997;-85
2021/07/07 04:40:07;;;;;;;1.27;1.13;;;;;;;13.06;100.00;93051.13;2558125;23;20005;-83
2021/07/07 04:41:08;;;;;;;1.25;1.15;;;;;;;13.08;100.00;93046.09;2570169;23;20744;-85
2021/07/07 04:42:08;;;;;;;1.63;1.20;;;;;;;13.08;100.00;93053.38;2557224;23;20005;-84
2021/07/07 04:43:09;;;;;;;1.77;1.20;;;;;;;13.08;100.00;93064.13;2544839;23;20413;-83
2021/07/07 04:44:10;;;;;;;1.88;1.00;;;;;;;13.10;100.00;93057.16;2544911;23;20108;-84